createdAt,value
2022-09-03T00:01:20.342Z,102596.34
2022-09-03T00:03:56.409Z,102605.22
2022-09-03T00:06:40.081Z,102601.78
2022-09-03T00:09:18.758Z,102600.94
2022-09-03T00:11:51.045Z,102595.72
2022-09-03T00:14:27.182Z,102603.69
2022-09-03T00:17:03.333Z,102601.09
2022-09-03T00:19:40.881Z,102575.84
2022-09-03T00:22:19.166Z,102605.66
2022-09-03T00:24:48.999Z,102603.03
2022-09-03T00:27:24.196Z,102594.28
2022-09-03T00:29:58.154Z,102565.31
2022-09-03T00:32:34.695Z,102608.44
2022-09-03T00:35:06.699Z,102604.94
2022-09-03T00:37:38.146Z,102599.63
2022-09-03T00:40:16.419Z,102603.22
2022-09-03T00:43:02.949Z,102598.84
2022-09-03T00:45:39.306Z,102606.00
2022-09-03T00:48:27.767Z,102599.84
2022-09-03T00:51:17.482Z,102595.47
2022-09-03T00:54:03.991Z,102606.13
2022-09-03T00:56:45.889Z,102600.84
2022-09-03T00:59:15.885Z,102605.28
2022-09-03T01:02:15.066Z,102600.06
2022-09-03T01:04:52.916Z,102601.88
2022-09-03T01:07:32.572Z,102602.81
2022-09-03T01:10:34.580Z,102597.53
2022-09-03T01:13:11.206Z,102602.03
2022-09-03T01:15:50.318Z,102606.53
2022-09-03T01:18:38.333Z,102594.19
2022-09-03T01:21:28.247Z,102593.38
2022-09-03T01:24:07.589Z,102598.72
2022-09-03T01:27:05.764Z,102593.47
2022-09-03T01:29:58.576Z,102594.38
2022-09-03T01:32:50.311Z,102593.53
2022-09-03T01:35:45.583Z,102586.47
2022-09-03T01:38:43.628Z,102593.63
2022-09-03T01:41:48.180Z,102588.31
2022-09-03T01:44:52.936Z,102593.66
2022-09-03T01:47:32.173Z,102591.03
2022-09-03T01:50:13.378Z,102594.59
2022-09-03T01:52:50.052Z,102595.50
2022-09-03T01:55:34.153Z,102592.91
2022-09-03T01:58:11.392Z,102577.13
2022-09-03T02:00:43.864Z,102545.53
2022-09-03T02:03:12.869Z,102597.34
2022-09-03T02:05:39.889Z,102597.38
2022-09-03T02:08:11.612Z,102598.28
2022-09-03T02:10:43.801Z,102595.66
2022-09-03T02:13:20.064Z,102588.59
2022-09-03T02:15:50.764Z,102591.25
2022-09-03T02:18:29.556Z,102591.28
2022-09-03T02:20:57.601Z,102585.97
2022-09-03T02:23:28.460Z,102577.19
2022-09-03T02:26:02.133Z,102584.25
2022-09-03T02:28:32.375Z,102585.13
2022-09-03T02:30:59.680Z,102564.06
2022-09-03T02:33:27.656Z,102582.50
2022-09-03T02:35:55.370Z,102592.25
2022-09-03T02:38:28.521Z,102587.84
2022-09-03T02:40:55.949Z,102587.84
2022-09-03T02:43:41.793Z,102591.41
2022-09-03T02:46:14.110Z,102593.16
2022-09-03T02:48:41.123Z,102587.03
2022-09-03T02:51:14.146Z,102572.19
2022-09-03T02:53:43.289Z,102592.31
2022-09-03T02:56:17.649Z,102594.13
2022-09-03T02:58:45.216Z,102596.75
2022-09-03T03:01:18.067Z,102597.63
2022-09-03T03:03:52.715Z,102596.78
2022-09-03T03:06:20.997Z,102593.22
2022-09-03T03:08:49.947Z,102589.72
2022-09-03T03:11:18.525Z,102598.50
2022-09-03T03:13:47.034Z,102591.44
2022-09-03T03:16:15.971Z,102577.47
2022-09-03T03:18:43.283Z,102598.50
2022-09-03T03:21:13.318Z,102603.81
2022-09-03T03:23:40.668Z,102602.94
2022-09-03T03:26:10.610Z,102602.06
2022-09-03T03:28:38.014Z,102572.25
2022-09-03T03:31:22.446Z,102612.63
2022-09-03T03:33:57.523Z,102602.94
2022-09-03T03:36:26.589Z,102608.22
2022-09-03T03:38:55.466Z,102576.66
2022-09-03T03:41:33.896Z,102621.47
2022-09-03T03:44:03.737Z,102608.25
2022-09-03T03:46:33.864Z,102606.44
2022-09-03T03:49:01.414Z,102608.25
2022-09-03T03:51:29.013Z,102607.34
2022-09-03T03:54:01.091Z,102613.53
2022-09-03T03:56:31.556Z,102607.38
2022-09-03T03:58:59.795Z,102614.44
2022-09-03T04:01:28.252Z,102620.56
2022-09-03T04:03:56.328Z,102620.56
2022-09-03T04:06:23.681Z,102618.84
2022-09-03T04:08:51.033Z,102607.38
2022-09-03T04:11:20.511Z,102565.25
2022-09-03T04:13:48.203Z,102621.38
2022-09-03T04:16:21.060Z,102613.44
2022-09-03T04:18:49.659Z,102629.25
2022-09-03T04:21:23.145Z,102625.69
2022-09-03T04:23:51.711Z,102635.41
2022-09-03T04:26:22.177Z,102620.44
2022-09-03T04:28:49.173Z,102637.06
2022-09-03T04:31:19.402Z,102639.72
2022-09-03T04:33:46.905Z,102643.22
2022-09-03T04:36:19.543Z,102633.47
2022-09-03T04:38:48.666Z,102633.41
2022-09-03T04:41:20.964Z,102632.53
2022-09-03T04:43:51.573Z,102622.75
2022-09-03T04:46:20.828Z,102607.88
2022-09-03T04:48:53.449Z,102623.59
2022-09-03T04:51:27.329Z,102625.31
2022-09-03T04:53:59.793Z,102625.28
2022-09-03T04:56:35.518Z,102628.72
2022-09-03T04:59:05.224Z,102628.66
2022-09-03T05:01:34.547Z,102630.41
2022-09-03T05:04:01.775Z,102629.44
2022-09-03T05:06:31.003Z,102625.81
2022-09-03T05:08:58.467Z,102626.66
2022-09-03T05:11:27.685Z,102626.56
2022-09-03T05:13:57.272Z,102617.69
2022-09-03T05:16:25.514Z,102625.56
2022-09-03T05:18:54.337Z,102615.81
2022-09-03T05:21:22.324Z,102633.41
2022-09-03T05:23:50.961Z,102619.25
2022-09-03T05:26:23.385Z,102634.16
2022-09-03T05:28:57.871Z,102627.91
2022-09-03T05:31:26.864Z,102634.88
2022-09-03T05:33:57.852Z,102634.81
2022-09-03T05:36:27.325Z,102634.72
2022-09-03T05:38:54.830Z,102633.78
2022-09-03T05:41:23.244Z,102640.75
2022-09-03T05:43:53.646Z,102630.06
2022-09-03T05:46:21.060Z,102572.19
2022-09-03T05:48:47.974Z,102635.16
2022-09-03T05:51:17.982Z,102634.19
2022-09-03T05:53:48.094Z,102639.38
2022-09-03T05:56:21.116Z,102641.97
2022-09-03T05:59:01.985Z,102629.50
2022-09-03T06:01:56.766Z,102644.34
2022-09-03T06:04:46.480Z,102646.84
2022-09-03T06:07:33.791Z,102640.53
2022-09-03T06:10:25.443Z,102635.13
2022-09-03T06:12:54.007Z,102638.47
2022-09-03T06:15:21.069Z,102640.16
2022-09-03T06:17:47.937Z,102641.81
2022-09-03T06:20:15.058Z,102650.56
2022-09-03T06:22:42.172Z,102641.59
2022-09-03T06:25:09.952Z,102641.50
2022-09-03T06:27:36.920Z,102650.22
2022-09-03T06:30:06.299Z,102642.97
2022-09-03T06:32:53.255Z,102641.09
2022-09-03T06:35:42.824Z,102644.47
2022-09-03T06:38:30.646Z,102640.78
2022-09-03T06:41:24.051Z,102636.25
2022-09-03T06:44:13.489Z,102637.81
2022-09-03T06:47:01.245Z,102637.72
2022-09-03T06:49:48.225Z,102645.50
2022-09-03T06:52:35.141Z,102645.38
2022-09-03T06:55:22.177Z,102640.84
2022-09-03T06:58:09.345Z,102641.59
2022-09-03T07:00:56.410Z,102646.81
2022-09-03T07:03:43.526Z,102638.66
2022-09-03T07:06:34.101Z,102642.94
2022-09-03T07:09:21.061Z,102650.81
2022-09-03T07:12:08.137Z,102656.88
2022-09-03T07:14:55.188Z,102654.97
2022-09-03T07:17:42.355Z,102653.06
2022-09-03T07:20:29.742Z,102659.97
2022-09-03T07:23:16.812Z,102643.25
2022-09-03T07:26:03.963Z,102652.63
2022-09-03T07:28:54.489Z,102654.25
2022-09-03T07:31:53.140Z,102652.38
2022-09-03T07:34:41.593Z,102653.09
2022-09-03T07:37:28.578Z,102649.38
2022-09-03T07:40:15.553Z,102658.13
2022-09-03T07:43:02.610Z,102656.16
2022-09-03T07:45:49.841Z,102656.91
2022-09-03T07:48:37.638Z,102649.72
2022-09-03T07:51:24.824Z,102666.38
2022-09-03T07:54:13.222Z,102654.72
2022-09-03T07:57:00.935Z,102659.03
2022-09-03T07:59:48.086Z,102643.13
2022-09-03T08:02:35.314Z,102664.19
2022-09-03T08:05:22.310Z,102660.53
2022-09-03T08:08:09.352Z,102660.44
2022-09-03T08:10:57.193Z,102650.59
2022-09-03T08:13:44.236Z,102659.38
2022-09-03T08:16:37.127Z,102665.50
2022-09-03T08:19:24.949Z,102668.00
2022-09-03T08:22:11.997Z,102663.34
2022-09-03T08:24:59.144Z,102668.63
2022-09-03T08:27:46.262Z,102670.19
2022-09-03T08:30:33.276Z,102671.78
2022-09-03T08:33:21.942Z,102663.88
2022-09-03T08:36:14.995Z,102671.50
2022-09-03T08:39:03.536Z,102672.25
2022-09-03T08:41:56.563Z,102674.78
2022-09-03T08:44:48.803Z,102675.56
2022-09-03T08:48:25.134Z,102671.84
2022-09-03T08:51:16.689Z,102666.28
2022-09-03T08:54:09.471Z,102674.03
2022-09-03T08:56:40.053Z,102672.84
2022-09-03T08:59:07.027Z,102663.00
2022-09-03T09:01:39.947Z,102679.44
2022-09-03T09:04:32.388Z,102666.81
2022-09-03T09:07:15.549Z,102670.16
2022-09-03T09:09:51.274Z,102676.13
2022-09-03T09:12:29.352Z,102666.94
2022-09-03T09:15:12.881Z,102665.81
2022-09-03T09:17:45.512Z,102673.63
2022-09-03T09:20:31.269Z,102675.31
2022-09-03T09:23:05.940Z,102674.38
2022-09-03T09:25:39.729Z,102671.69
2022-09-03T09:28:13.178Z,102671.66
2022-09-03T09:30:40.785Z,102668.81
2022-09-03T09:33:07.687Z,102667.66
2022-09-03T09:35:35.232Z,102674.38
2022-09-03T09:38:02.392Z,102674.88
2022-09-03T09:40:35.924Z,102678.16
2022-09-03T09:43:22.221Z,102674.47
2022-09-03T09:45:51.969Z,102673.28
2022-09-03T09:48:38.061Z,102677.31
2022-09-03T09:51:10.442Z,102670.66
2022-09-03T09:53:38.050Z,102673.56
2022-09-03T09:56:05.766Z,102666.16
2022-09-03T09:58:34.835Z,102676.75
2022-09-03T10:01:15.318Z,102680.44
2022-09-03T10:03:55.425Z,102670.63
2022-09-03T10:06:50.490Z,102677.09
2022-09-03T10:09:41.096Z,102668.53
2022-09-03T10:12:51.496Z,102664.06
2022-09-03T10:16:10.411Z,102669.47
2022-09-03T10:19:04.447Z,102654.69
2022-09-03T10:21:57.415Z,102666.97
2022-09-03T10:24:53.529Z,102659.56
2022-09-03T10:27:41.147Z,102670.56
2022-09-03T10:30:28.592Z,102667.97
2022-09-03T10:33:18.173Z,102653.94
2022-09-03T10:36:12.932Z,102665.19
2022-09-03T10:39:02.689Z,102671.75
2022-09-03T10:42:08.875Z,102662.13
2022-09-03T10:45:13.115Z,102664.13
2022-09-03T10:48:37.414Z,102666.75
2022-09-03T10:51:40.404Z,102655.38
2022-09-03T10:55:12.929Z,102670.56
2022-09-03T10:58:18.402Z,102670.41
2022-09-03T11:01:14.634Z,102669.50
2022-09-03T11:04:40.640Z,102635.91
2022-09-03T11:07:30.409Z,102658.19
2022-09-03T11:10:31.035Z,102667.53
2022-09-03T11:13:26.933Z,102665.94
2022-09-03T11:16:19.608Z,102671.53
2022-09-03T11:19:23.257Z,102672.66
2022-09-03T11:22:12.079Z,102668.50
2022-09-03T11:25:01.578Z,102657.50
2022-09-03T11:28:20.093Z,102650.63
2022-09-03T11:31:23.626Z,102655.53
2022-09-03T11:34:47.141Z,102656.53
2022-09-03T11:37:45.752Z,102657.66
2022-09-03T11:40:37.293Z,102639.59
2022-09-03T11:43:46.220Z,102655.91
2022-09-03T11:46:48.129Z,102653.94
2022-09-03T11:49:50.438Z,102655.66
2022-09-03T11:52:49.013Z,102638.78
2022-09-03T11:55:53.593Z,102656.06
2022-09-03T11:58:50.662Z,102664.22
2022-09-03T12:01:18.856Z,102655.50
2022-09-03T12:03:58.626Z,102650.28
2022-09-03T12:06:43.260Z,102648.59
2022-09-03T12:09:57.693Z,102641.41
2022-09-03T12:12:46.084Z,102646.47
2022-09-03T12:15:25.184Z,102644.06
2022-09-03T12:18:19.372Z,102639.75
2022-09-03T12:20:49.057Z,102653.69
2022-09-03T12:23:28.631Z,102642.06
2022-09-03T12:25:56.008Z,102648.13
2022-09-03T12:28:26.240Z,102636.34
2022-09-03T12:30:53.934Z,102637.09
2022-09-03T12:33:23.332Z,102635.13
2022-09-03T12:36:01.545Z,102629.81
2022-09-03T12:38:30.228Z,102633.72
2022-09-03T12:43:52.070Z,102638.63
2022-09-03T12:46:33.255Z,102639.41
2022-09-03T12:52:48.238Z,102627.38
2022-09-03T12:55:48.416Z,102642.06
2022-09-03T12:58:44.366Z,102635.00
2022-09-03T13:01:47.739Z,102628.91
2022-09-03T13:04:41.450Z,102639.53
2022-09-03T13:07:54.610Z,102633.59
2022-09-03T13:10:53.551Z,102640.19
2022-09-03T13:13:48.938Z,102633.47
2022-09-03T13:16:41.664Z,102638.44
2022-09-03T13:20:02.332Z,102632.25
2022-09-03T13:22:58.215Z,102634.06
2022-09-03T13:26:06.477Z,102635.44
2022-09-03T13:29:21.140Z,102636.22
2022-09-03T13:32:15.266Z,102637.03
2022-09-03T13:35:13.600Z,102630.88
2022-09-03T13:38:09.496Z,102621.81
2022-09-03T13:41:05.564Z,102644.19
2022-09-03T13:44:02.176Z,102633.88
2022-09-03T13:46:55.010Z,102647.72
2022-09-03T13:49:52.512Z,102651.53
2022-09-03T13:52:51.272Z,102622.88
2022-09-03T13:55:27.550Z,102605.53
2022-09-03T13:58:01.928Z,102649.31
2022-09-03T14:00:43.110Z,102651.50
2022-09-03T14:03:52.401Z,102649.22
2022-09-03T14:07:01.599Z,102653.28
2022-09-03T14:10:10.116Z,102642.00
2022-09-03T14:13:05.846Z,102644.97
2022-09-03T14:16:09.966Z,102647.81
2022-09-03T14:19:19.880Z,102628.22
2022-09-03T14:22:25.461Z,102642.31
2022-09-03T14:25:34.841Z,102643.53
2022-09-03T14:28:43.752Z,102651.75
2022-09-03T14:31:39.996Z,102658.22
2022-09-03T14:34:45.121Z,102656.88
2022-09-03T14:38:05.813Z,102654.28
2022-09-03T14:41:38.204Z,102648.63
2022-09-03T14:44:42.859Z,102643.16
2022-09-03T14:48:12.013Z,102652.63
2022-09-03T14:51:50.365Z,102653.72
2022-09-03T14:54:47.023Z,102647.53
2022-09-03T14:57:54.889Z,102657.50
2022-09-03T15:00:48.343Z,102652.13
2022-09-03T15:03:47.520Z,102653.19
2022-09-03T15:06:52.579Z,102650.78
2022-09-03T15:10:13.721Z,102647.56
2022-09-03T15:13:05.260Z,102644.34
2022-09-03T15:16:21.029Z,102650.00
2022-09-03T15:19:19.418Z,102663.63
2022-09-03T15:22:33.717Z,102663.00
2022-09-03T15:25:41.009Z,102611.38
2022-09-03T15:28:43.148Z,102655.22
2022-09-03T15:31:57.679Z,102655.28
2022-09-03T15:35:15.742Z,102653.53
2022-09-03T15:38:20.268Z,102651.09
2022-09-03T15:41:07.397Z,102652.19
2022-09-03T15:43:54.686Z,102654.09
2022-09-03T15:47:05.312Z,102650.75
2022-09-03T15:50:18.667Z,102651.00
2022-09-03T15:53:19.336Z,102651.00
2022-09-03T15:55:47.684Z,102655.28
2022-09-03T15:58:34.401Z,102661.69
2022-09-03T16:01:07.038Z,102656.38
2022-09-03T16:03:56.897Z,102641.78
2022-09-03T16:07:01.511Z,102659.47
2022-09-03T16:10:22.827Z,102656.91
2022-09-03T16:12:49.304Z,102662.34
2022-09-03T16:15:23.599Z,102669.66
2022-09-03T16:18:04.646Z,102672.47
2022-09-03T16:20:31.627Z,102707.34
2022-09-03T16:23:25.005Z,102719.84
2022-09-03T16:26:13.717Z,102693.78
2022-09-03T16:29:09.466Z,102723.09
2022-09-03T16:31:48.289Z,102700.47
2022-09-03T16:34:22.719Z,102702.69
2022-09-03T16:37:01.008Z,102652.13
2022-09-03T16:39:43.314Z,102680.25
2022-09-03T16:42:23.207Z,102669.94
2022-09-03T16:45:23.334Z,102656.84
2022-09-03T16:48:14.697Z,102683.84
2022-09-03T16:51:08.312Z,102693.94
2022-09-03T16:54:06.237Z,102695.03
2022-09-03T16:56:59.876Z,102683.63
2022-09-03T16:59:32.669Z,102687.38
2022-09-03T17:02:40.028Z,102672.47
2022-09-03T17:05:45.679Z,102675.31
2022-09-03T17:08:24.452Z,102681.72
2022-09-03T17:11:28.554Z,102682.00
2022-09-03T17:14:07.521Z,102685.69
2022-09-03T17:16:50.535Z,102651.72
2022-09-03T17:19:27.059Z,102686.88
2022-09-03T17:22:02.965Z,102685.34
2022-09-03T17:24:48.018Z,102691.81
2022-09-03T17:27:46.577Z,102699.22
2022-09-03T17:30:21.341Z,102694.19
2022-09-03T17:33:46.136Z,102701.59
2022-09-03T17:36:36.530Z,102694.06
2022-09-03T17:39:45.003Z,102716.09
2022-09-03T17:42:40.624Z,102722.38
2022-09-03T17:45:33.518Z,102725.94
2022-09-03T17:48:29.204Z,102726.00
2022-09-03T17:51:30.240Z,102729.66
2022-09-03T17:54:41.871Z,102742.22
2022-09-03T17:57:28.827Z,102747.72
2022-09-03T18:00:31.193Z,102742.56
2022-09-03T18:03:18.364Z,102753.44
2022-09-03T18:06:26.305Z,102752.69
2022-09-03T18:09:19.814Z,102753.72
2022-09-03T18:12:10.694Z,102753.81
2022-09-03T18:15:11.135Z,102760.94
2022-09-03T18:18:05.664Z,102760.19
2022-09-03T18:21:22.931Z,102762.97
2022-09-03T18:24:38.372Z,102760.53
2022-09-03T18:27:52.354Z,102753.66
2022-09-03T18:30:38.950Z,102744.88
2022-09-03T18:33:24.574Z,102758.22
2022-09-03T18:36:10.231Z,102755.63
2022-09-03T18:38:57.279Z,102762.91
2022-09-03T18:41:57.616Z,102772.88
2022-09-03T18:45:20.352Z,102776.63
2022-09-03T18:48:20.658Z,102769.72
2022-09-03T18:51:43.052Z,102768.97
2022-09-03T18:55:07.460Z,102774.41
2022-09-03T18:58:16.114Z,102770.19
2022-09-03T19:01:44.936Z,102780.09
2022-09-03T19:05:00.188Z,102786.47
2022-09-03T19:07:45.937Z,102788.38
2022-09-03T19:10:41.223Z,102784.94
2022-09-03T19:13:53.425Z,102785.19
2022-09-03T19:17:05.973Z,102791.47
2022-09-03T19:19:51.974Z,102791.63
2022-09-03T19:22:53.186Z,102789.16
2022-09-03T19:25:41.886Z,102790.16
2022-09-03T19:28:32.593Z,102792.97
2022-09-03T19:31:51.684Z,102777.22
2022-09-03T19:34:55.508Z,102783.53
2022-09-03T19:37:51.623Z,102781.88
2022-09-03T19:40:55.374Z,102789.19
2022-09-03T19:44:12.958Z,102791.94
2022-09-03T19:47:18.161Z,102798.34
2022-09-03T19:50:21.988Z,102796.69
2022-09-03T19:53:20.726Z,102797.66
2022-09-03T19:56:12.541Z,102774.19
2022-09-03T19:59:04.500Z,102808.59
2022-09-03T20:01:55.994Z,102801.66
2022-09-03T20:04:58.413Z,102774.59
2022-09-03T20:07:44.346Z,102809.81
2022-09-03T20:10:24.257Z,102779.25
2022-09-03T20:13:29.731Z,102769.69
2022-09-03T20:16:37.445Z,102818.88
2022-09-03T20:19:50.597Z,102822.50
2022-09-03T20:22:49.706Z,102830.59
2022-09-03T20:25:42.456Z,102828.88
2022-09-03T20:28:54.512Z,102831.59
2022-09-03T20:31:56.722Z,102836.97
2022-09-03T20:34:53.292Z,102836.16
2022-09-03T20:38:00.490Z,102845.09
2022-09-03T20:41:12.813Z,102839.81
2022-09-03T20:44:18.518Z,102840.81
2022-09-03T20:47:21.468Z,102844.44
2022-09-03T20:50:30.531Z,102848.03
2022-09-03T20:53:38.696Z,102844.56
2022-09-03T20:56:59.826Z,102847.34
2022-09-03T20:59:52.601Z,102848.31
2022-09-03T21:03:01.363Z,102855.44
2022-09-03T21:05:51.109Z,102859.97
2022-09-03T21:09:05.657Z,102860.03
2022-09-03T21:12:11.654Z,102867.22
2022-09-03T21:15:27.636Z,102862.84
2022-09-03T21:18:14.644Z,102856.69
2022-09-03T21:21:07.682Z,102867.41
2022-09-03T21:24:01.887Z,102841.09
2022-09-03T21:26:56.606Z,102868.44
2022-09-03T21:29:46.907Z,102870.31
2022-09-03T21:32:36.605Z,102873.00
2022-09-03T21:35:31.177Z,102881.06
2022-09-03T21:38:41.596Z,102883.72
2022-09-03T21:41:28.393Z,102879.38
2022-09-03T21:44:18.548Z,102853.03
2022-09-03T21:47:20.231Z,102885.66
2022-09-03T21:50:23.152Z,102888.38
2022-09-03T21:53:43.132Z,102889.28
2022-09-03T21:57:00.159Z,102895.56
2022-09-03T22:00:05.328Z,102889.38
2022-09-03T22:03:00.854Z,102899.19
2022-09-03T22:06:09.444Z,102908.97
2022-09-03T22:09:24.020Z,102907.25
2022-09-03T22:12:33.448Z,102901.19
2022-09-03T22:15:21.534Z,102915.28
2022-09-03T22:18:10.037Z,102916.22
2022-09-03T22:20:57.273Z,102910.03
2022-09-03T22:23:54.304Z,102901.25
2022-09-03T22:27:14.697Z,102913.69
2022-09-03T22:30:08.154Z,102921.69
2022-09-03T22:33:03.822Z,102925.25
2022-09-03T22:36:16.936Z,102924.44
2022-09-03T22:39:28.654Z,102914.72
2022-09-03T22:42:38.049Z,102916.56
2022-09-03T22:45:44.030Z,102923.66
2022-09-03T22:48:50.232Z,102928.09
2022-09-03T22:51:38.989Z,102923.72
2022-09-03T22:54:44.273Z,102931.72
2022-09-03T22:57:34.700Z,102929.09
2022-09-03T23:00:29.130Z,102923.00
2022-09-03T23:03:27.554Z,102928.28
2022-09-03T23:06:23.504Z,102932.69
2022-09-03T23:09:24.726Z,102928.28
2022-09-03T23:12:20.154Z,102932.72
2022-09-03T23:15:12.508Z,102935.41
2022-09-03T23:18:06.401Z,102936.34
2022-09-03T23:20:56.526Z,102941.63
2022-09-03T23:23:51.728Z,102939.88
2022-09-03T23:26:50.134Z,102938.97
2022-09-03T23:30:02.798Z,102945.19
2022-09-03T23:32:50.372Z,102948.69
2022-09-03T23:35:37.653Z,102950.47
2022-09-03T23:38:41.403Z,102937.25
2022-09-03T23:41:37.551Z,102936.38
2022-09-03T23:44:46.001Z,102942.59
2022-09-03T23:47:53.921Z,102936.47
2022-09-03T23:51:15.869Z,102948.75
2022-09-03T23:54:43.853Z,102944.34
2022-09-03T23:57:47.792Z,102949.63
